createdAt,value
2022-08-07T08:04:31.293Z,57.69
2022-08-07T08:05:42.940Z,58.01
2022-08-07T08:06:30.527Z,55.75
2022-08-07T08:07:35.950Z,57.52
2022-08-07T08:08:34.862Z,55.59
2022-08-07T08:09:29.851Z,55.75
2022-08-07T08:10:37.807Z,58.97
2022-08-07T08:11:47.335Z,55.59
2022-08-07T08:12:52.064Z,55.27
2022-08-07T08:13:33.197Z,56.56
2022-08-07T08:14:29.302Z,56.72
2022-08-07T08:20:16.080Z,55.43
2022-08-07T08:20:19.227Z,54.46
2022-08-07T08:21:14.224Z,57.69
2022-08-07T08:22:14.384Z,57.20
2022-08-07T08:23:14.368Z,57.69
2022-08-07T08:24:18.631Z,55.11
2022-08-07T08:34:05.444Z,55.11
2022-08-07T08:35:05.996Z,54.62
2022-08-07T08:36:05.172Z,58.65
2022-08-07T08:47:34.402Z,56.07
2022-08-07T08:48:32.567Z,56.72
2022-08-07T08:49:33.313Z,55.11
2022-08-07T08:54:19.476Z,57.52
2022-08-07T08:55:20.965Z,57.04
2022-08-07T08:56:18.893Z,54.79
2022-08-07T08:57:18.813Z,59.30
2022-08-07T08:58:20.389Z,57.36
2022-08-07T08:59:18.659Z,56.07
2022-08-07T09:04:30.213Z,56.24
2022-08-07T09:05:36.634Z,54.46
2022-08-07T09:06:28.881Z,54.95
2022-08-07T09:07:28.901Z,55.75
2022-08-07T09:08:28.968Z,56.07
2022-08-07T09:09:33.108Z,56.72
2022-08-07T09:10:29.661Z,54.79
2022-08-07T09:11:43.695Z,56.56
2022-08-07T09:12:31.049Z,57.04
2022-08-07T09:13:38.034Z,56.56
2022-08-07T09:14:29.697Z,59.30
2022-08-07T09:16:23.616Z,56.72
2022-08-07T09:16:30.522Z,56.24
2022-08-07T09:17:33.941Z,54.46
2022-08-07T09:18:28.734Z,58.17
2022-08-07T09:19:53.773Z,56.40
2022-08-07T09:20:35.958Z,57.04
2022-08-07T09:21:58.288Z,57.20
2022-08-07T09:24:29.309Z,58.01
2022-08-07T09:24:30.644Z,55.91
2022-08-07T09:24:55.316Z,57.69
2022-08-07T09:25:29.635Z,59.14
2022-08-07T09:31:01.434Z,55.91
2022-08-07T09:32:00.455Z,55.75
2022-08-07T09:33:05.311Z,58.01
2022-08-07T09:34:00.226Z,56.07
2022-08-07T09:35:04.455Z,56.24
2022-08-07T09:36:04.307Z,56.40
2022-08-07T09:37:00.195Z,53.50
2022-08-07T09:38:00.456Z,52.37
2022-08-07T09:39:00.263Z,54.14
2022-08-07T09:40:00.236Z,54.62
2022-08-07T09:41:00.156Z,56.24
2022-08-07T09:42:05.805Z,54.46
2022-08-07T09:43:00.150Z,56.40
2022-08-07T09:44:06.032Z,58.49
2022-08-07T09:47:24.494Z,60.42
2022-08-07T09:47:50.718Z,57.20
2022-08-07T09:47:55.202Z,54.46
2022-08-07T09:48:05.159Z,55.27
2022-08-07T09:50:02.723Z,55.75
2022-08-07T09:50:18.576Z,56.88
2022-08-07T09:51:00.011Z,59.30
2022-08-07T09:52:17.071Z,55.11
2022-08-07T09:52:59.990Z,52.53
2022-08-07T09:54:02.638Z,50.11
2022-08-07T09:54:59.993Z,51.08
2022-08-07T09:56:03.862Z,49.47
2022-08-07T09:57:00.006Z,52.53
2022-08-07T09:58:00.120Z,51.24
2022-08-07T09:58:59.916Z,52.21
2022-08-07T10:00:01.514Z,52.53
2022-08-07T10:00:59.893Z,53.50
2022-08-07T10:01:59.930Z,53.17
2022-08-07T10:03:07.970Z,56.07
2022-08-07T10:04:06.929Z,56.56
2022-08-07T10:05:01.035Z,56.24
2022-08-07T10:06:03.574Z,54.95
2022-08-07T10:07:01.073Z,52.85
2022-08-07T10:08:01.291Z,56.07
2022-08-07T10:09:01.025Z,54.95
2022-08-07T10:10:03.016Z,57.20
2022-08-07T10:11:59.918Z,58.17
2022-08-07T10:12:14.153Z,57.36
2022-08-07T10:13:00.918Z,55.75
2022-08-07T10:14:02.383Z,56.56
2022-08-07T10:15:00.882Z,55.27
2022-08-07T10:16:00.829Z,55.75
2022-08-07T10:17:01.113Z,54.14
2022-08-07T10:18:02.828Z,51.56
2022-08-07T10:19:00.851Z,53.33
2022-08-07T10:20:00.798Z,55.11
2022-08-07T10:21:00.835Z,51.56
2022-08-07T10:22:15.833Z,53.98
2022-08-07T10:23:00.829Z,50.76
2022-08-07T10:24:05.582Z,51.72
2022-08-07T10:25:00.741Z,51.88
2022-08-07T10:26:00.734Z,52.05
2022-08-07T10:27:00.731Z,54.79
2022-08-07T10:28:02.520Z,54.30
2022-08-07T10:29:00.718Z,56.40
2022-08-07T10:30:00.682Z,55.27
2022-08-07T10:31:00.682Z,56.56
2022-08-07T10:32:00.681Z,57.20
2022-08-07T10:33:00.668Z,58.17
2022-08-07T10:34:15.067Z,57.04
2022-08-07T10:35:00.633Z,57.36
2022-08-07T10:36:05.623Z,57.69
2022-08-07T10:37:03.819Z,58.01
2022-08-07T10:38:21.044Z,55.43
2022-08-07T10:39:00.615Z,54.30
2022-08-07T10:40:05.392Z,53.82
2022-08-07T10:41:00.598Z,52.21
2022-08-07T10:42:09.742Z,50.43
2022-08-07T10:43:00.552Z,51.56
2022-08-07T10:44:07.381Z,53.17
2022-08-07T10:45:00.505Z,54.95
2022-08-07T10:46:00.567Z,55.11
2022-08-07T10:47:00.489Z,56.07
2022-08-07T10:48:03.585Z,57.04
2022-08-07T10:49:00.526Z,58.49
2022-08-07T10:50:00.471Z,55.11
2022-08-07T10:51:00.470Z,57.20
2022-08-07T10:52:12.937Z,58.97
2022-08-07T10:53:05.393Z,59.62
2022-08-07T10:54:00.434Z,57.36
2022-08-07T10:55:01.455Z,57.04
2022-08-07T10:56:02.175Z,56.24
2022-08-07T10:57:00.364Z,57.04
2022-08-07T10:58:00.415Z,57.36
2022-08-07T10:59:00.375Z,59.46
2022-08-07T11:00:00.421Z,57.20
2022-08-07T11:01:00.770Z,56.88
2022-08-07T11:02:05.338Z,57.20
2022-08-07T11:03:00.386Z,57.20
2022-08-07T11:04:16.454Z,54.95
2022-08-07T11:05:01.680Z,55.91
2022-08-07T11:06:00.302Z,54.79
2022-08-07T11:07:00.364Z,54.79
2022-08-07T11:08:02.635Z,53.82
2022-08-07T11:09:00.274Z,55.43
2022-08-07T11:10:09.889Z,54.95
2022-08-07T11:11:00.311Z,56.24
2022-08-07T11:12:00.251Z,56.72
2022-08-07T11:13:02.277Z,57.36
2022-08-07T11:14:43.878Z,55.59
2022-08-07T11:15:01.058Z,53.66
2022-08-07T11:16:00.165Z,51.56
2022-08-07T11:17:01.960Z,52.21
2022-08-07T11:18:03.680Z,53.17
2022-08-07T11:19:00.257Z,53.82
2022-08-07T11:20:00.137Z,53.33
2022-08-07T11:21:00.211Z,53.66
2022-08-07T11:22:00.497Z,51.56
2022-08-07T11:23:00.154Z,53.33
2022-08-07T11:24:00.395Z,55.27
2022-08-07T11:25:00.167Z,54.79
2022-08-07T11:26:06.482Z,54.62
2022-08-07T11:27:01.195Z,56.72
2022-08-07T11:28:02.628Z,58.17
2022-08-07T11:29:00.066Z,56.72
2022-08-07T11:30:17.822Z,56.24
2022-08-07T11:31:00.107Z,53.82
2022-08-07T11:32:00.097Z,55.11
2022-08-07T11:33:00.035Z,49.95
2022-08-07T11:34:00.803Z,48.02
2022-08-07T11:35:00.980Z,48.02
2022-08-07T11:36:00.557Z,48.50
2022-08-07T11:37:00.391Z,52.69
2022-08-07T11:38:12.889Z,49.79
2022-08-07T11:38:59.988Z,52.05
2022-08-07T11:40:01.998Z,52.53
2022-08-07T11:40:59.972Z,52.69
2022-08-07T11:42:02.921Z,52.53
2022-08-07T11:42:59.927Z,55.11
2022-08-07T11:44:12.270Z,55.11
2022-08-07T11:44:59.943Z,55.43
2022-08-07T11:45:59.851Z,52.85
2022-08-07T11:46:59.861Z,52.05
2022-08-07T11:48:02.614Z,52.85
2022-08-07T11:49:51.344Z,53.66
2022-08-07T11:50:30.569Z,52.69
2022-08-07T11:51:00.149Z,56.24
2022-08-07T11:51:59.963Z,57.04
2022-08-07T11:53:01.240Z,56.72
2022-08-07T11:54:01.031Z,57.04
2022-08-07T11:54:59.963Z,54.30
2022-08-07T11:56:11.929Z,55.27
2022-08-07T11:56:59.795Z,55.27
2022-08-07T11:58:01.608Z,53.66
2022-08-07T11:58:59.812Z,54.62
2022-08-07T12:00:11.996Z,53.17
2022-08-07T12:01:02.327Z,54.79
2022-08-07T12:02:01.093Z,53.66
2022-08-07T12:02:59.954Z,55.11
2022-08-07T12:03:59.738Z,52.21
2022-08-07T12:04:59.792Z,52.85
2022-08-07T12:05:59.679Z,55.43
2022-08-07T12:07:07.921Z,55.27
2022-08-07T12:08:04.155Z,55.91
2022-08-07T12:08:59.773Z,56.88
2022-08-07T12:10:02.174Z,56.72
2022-08-07T12:11:08.077Z,56.07
2022-08-07T12:12:10.851Z,55.91
2022-08-07T12:12:59.572Z,56.56
2022-08-07T12:13:59.587Z,59.14
2022-08-07T12:15:01.192Z,52.53
2022-08-07T12:16:05.808Z,60.75
2022-08-07T12:17:00.178Z,58.81
2022-08-07T12:18:03.032Z,53.50
2022-08-07T12:18:59.554Z,51.72
2022-08-07T12:20:06.310Z,49.95
2022-08-07T12:21:00.616Z,51.40
2022-08-07T12:22:39.125Z,51.08
2022-08-07T12:22:59.715Z,53.50
2022-08-07T12:24:05.518Z,52.21
2022-08-07T12:25:02.208Z,54.62
2022-08-07T12:26:05.759Z,52.21
2022-08-07T12:26:59.433Z,58.65
2022-08-07T12:28:09.963Z,54.46
2022-08-07T12:29:00.711Z,49.95
2022-08-07T12:29:59.378Z,51.24
2022-08-07T12:30:59.422Z,48.82
2022-08-07T12:32:03.911Z,48.50
2022-08-07T12:32:59.348Z,50.27
2022-08-07T12:34:03.995Z,52.37
2022-08-07T12:34:59.356Z,51.24
2022-08-07T12:36:02.342Z,51.88
2022-08-07T12:36:59.332Z,51.88
2022-08-07T12:38:11.452Z,52.05
2022-08-07T12:38:59.460Z,49.63
2022-08-07T12:40:04.253Z,52.85
2022-08-07T12:41:00.330Z,51.56
2022-08-07T12:42:41.099Z,51.08
2022-08-07T12:43:00.233Z,54.46
2022-08-07T12:51:22.259Z,50.92
2022-08-07T12:52:22.072Z,52.37
2022-08-07T12:53:22.371Z,52.05
2022-08-07T12:54:37.340Z,53.01
2022-08-07T12:55:40.634Z,51.08
2022-08-07T12:56:23.108Z,52.05
2022-08-07T12:57:23.082Z,48.98
2022-08-07T12:58:28.235Z,50.43
2022-08-07T12:59:24.368Z,51.08
2022-08-07T13:00:32.825Z,51.08
2022-08-07T13:01:23.136Z,51.40
2022-08-07T13:02:23.009Z,51.56
2022-08-07T13:08:12.459Z,51.88
2022-08-07T13:08:18.690Z,49.47
2022-08-07T13:10:18.930Z,49.95
2022-08-07T13:10:28.700Z,52.69
2022-08-07T13:11:16.187Z,47.53
2022-08-07T13:12:15.103Z,48.02
2022-08-07T13:13:13.613Z,48.50
2022-08-07T13:14:13.512Z,49.63
2022-08-07T13:15:14.256Z,49.31
2022-08-07T13:16:13.532Z,51.24
2022-08-07T13:17:13.549Z,50.11
2022-08-07T13:18:26.111Z,48.82
2022-08-07T13:19:21.713Z,50.43
2022-08-07T13:20:13.449Z,47.70
2022-08-07T13:21:13.999Z,53.17
2022-08-07T13:22:19.702Z,56.72
2022-08-07T13:24:02.080Z,55.91
2022-08-07T13:24:14.403Z,55.91
2022-08-07T13:25:24.335Z,53.66
2022-08-07T13:26:16.026Z,51.08
2022-08-07T13:27:13.375Z,49.31
2022-08-07T13:28:18.717Z,50.11
2022-08-07T13:29:13.337Z,49.15
2022-08-07T13:30:19.686Z,52.05
2022-08-07T13:31:13.820Z,49.79
2022-08-07T13:32:31.287Z,49.47
2022-08-07T13:34:14.728Z,48.50
2022-08-07T13:34:33.726Z,49.47
2022-08-07T13:35:15.932Z,50.43
2022-08-07T13:36:17.683Z,52.37
2022-08-07T13:37:20.023Z,52.37
2022-08-07T13:38:14.530Z,51.08
2022-08-07T13:39:49.368Z,50.43
2022-08-07T13:46:06.943Z,53.33
2022-08-07T13:46:23.942Z,53.50
2022-08-07T13:47:09.429Z,52.85
2022-08-07T13:48:08.395Z,54.62
2022-08-07T13:49:05.208Z,53.17
2022-08-07T13:50:34.119Z,52.69
2022-08-07T13:51:27.569Z,50.11
2022-08-07T13:52:30.731Z,52.37
2022-08-07T13:53:05.180Z,49.47
2022-08-07T13:54:05.117Z,51.56
2022-08-07T13:55:05.093Z,52.53
2022-08-07T13:56:05.103Z,51.24
2022-08-07T13:57:05.067Z,53.98
2022-08-07T13:58:05.099Z,50.43
2022-08-07T13:59:05.608Z,48.82
2022-08-07T14:00:05.048Z,48.82
2022-08-07T14:01:09.200Z,46.57
2022-08-07T14:02:05.393Z,46.25
2022-08-07T14:03:05.006Z,46.73
2022-08-07T14:04:07.934Z,48.34
2022-08-07T14:05:05.010Z,46.89
2022-08-07T14:06:04.967Z,48.50
2022-08-07T14:07:04.953Z,48.66
2022-08-07T14:08:04.947Z,48.18
2022-08-07T14:09:05.154Z,46.73
2022-08-07T14:10:23.130Z,49.47
2022-08-07T14:11:17.282Z,48.34
2022-08-07T14:12:07.450Z,51.56
2022-08-07T14:13:04.878Z,52.53
2022-08-07T14:14:04.879Z,52.37
2022-08-07T14:15:04.868Z,51.24
2022-08-07T14:16:04.851Z,52.85
2022-08-07T14:17:32.133Z,51.40
2022-08-07T14:18:23.662Z,52.05
2022-08-07T14:19:04.832Z,49.95
2022-08-07T14:20:43.086Z,49.63
2022-08-07T14:21:08.441Z,47.70
2022-08-07T14:22:11.620Z,46.73
2022-08-07T14:23:04.771Z,45.60
2022-08-07T14:24:04.760Z,48.18
2022-08-07T14:25:04.786Z,47.70
2022-08-07T14:26:04.737Z,47.53
2022-08-07T14:28:11.419Z,51.08
2022-08-07T14:28:11.750Z,50.60
2022-08-07T14:30:03.072Z,50.43
2022-08-07T14:30:11.268Z,50.27
2022-08-07T14:31:04.679Z,47.86
2022-08-07T14:32:04.677Z,45.92
2022-08-07T14:33:05.200Z,44.79
2022-08-07T14:34:07.343Z,44.79
2022-08-07T14:35:04.627Z,44.79
2022-08-07T14:36:06.439Z,45.12
2022-08-07T14:37:04.603Z,44.47
2022-08-07T14:38:06.054Z,45.28
2022-08-07T14:39:04.621Z,43.67
2022-08-07T14:40:17.436Z,44.15
2022-08-07T14:41:04.603Z,42.22
2022-08-07T14:42:19.794Z,45.12
2022-08-07T14:43:59.384Z,45.28
2022-08-07T14:44:08.022Z,45.92
2022-08-07T14:45:21.835Z,43.02
2022-08-07T14:46:05.699Z,41.09
2022-08-07T14:48:06.606Z,46.08
2022-08-07T14:49:57.512Z,43.34
2022-08-07T14:50:05.584Z,47.53
2022-08-07T14:51:05.615Z,45.92
2022-08-07T14:52:10.616Z,47.53
2022-08-07T14:53:08.069Z,48.50
2022-08-07T14:54:30.866Z,48.18
2022-08-07T14:55:05.529Z,46.89
2022-08-07T14:56:05.532Z,46.25
2022-08-07T14:57:05.565Z,44.63
2022-08-07T14:58:05.725Z,44.63
2022-08-07T15:00:07.089Z,45.12
2022-08-07T15:01:21.484Z,45.44
2022-08-07T15:02:06.502Z,44.79
2022-08-07T15:03:16.516Z,42.86
2022-08-07T15:04:05.878Z,45.28
2022-08-07T15:05:20.094Z,44.47
2022-08-07T15:06:05.416Z,46.57
2022-08-07T15:07:17.819Z,46.73
2022-08-07T15:08:05.408Z,48.02
2022-08-07T15:10:10.915Z,46.73
2022-08-07T15:11:05.528Z,44.31
2022-08-07T15:12:06.747Z,43.51
2022-08-07T15:13:06.681Z,43.51
2022-08-07T15:14:10.131Z,47.70
2022-08-07T15:16:11.434Z,44.31
2022-08-07T15:17:05.314Z,42.86
2022-08-07T15:18:05.347Z,46.41
2022-08-07T15:19:05.280Z,45.28
2022-08-07T15:20:33.160Z,43.83
2022-08-07T15:21:08.200Z,47.05
2022-08-07T15:22:07.018Z,44.79
2022-08-07T15:25:14.053Z,43.02
2022-08-07T15:26:06.260Z,49.47
2022-08-07T15:27:05.630Z,49.15
2022-08-07T15:28:36.316Z,47.53
2022-08-07T15:31:06.526Z,48.18
2022-08-07T15:32:05.210Z,48.02
2022-08-07T15:33:19.608Z,48.18
2022-08-07T15:34:05.126Z,48.34
2022-08-07T15:35:05.125Z,49.79
2022-08-07T15:36:05.688Z,49.31
2022-08-07T15:37:06.519Z,50.43
2022-08-07T15:38:31.196Z,50.27
2022-08-07T15:39:05.122Z,47.21
2022-08-07T15:40:05.079Z,47.37
2022-08-07T15:41:23.969Z,47.05
2022-08-07T15:42:46.705Z,46.89
2022-08-07T15:43:06.093Z,47.21
2022-08-07T15:44:05.033Z,49.79
2022-08-07T15:45:05.012Z,46.89
2022-08-07T15:46:31.660Z,46.89
2022-08-07T15:47:08.743Z,47.21
2022-08-07T15:48:05.039Z,46.08
2022-08-07T15:49:14.269Z,48.50
2022-08-07T15:50:06.710Z,49.95
2022-08-07T15:51:09.316Z,50.11
2022-08-07T15:52:04.974Z,51.56
2022-08-07T15:53:05.108Z,51.08
2022-08-07T15:54:04.900Z,49.63
2022-08-07T15:55:14.366Z,50.60
2022-08-07T15:56:06.933Z,50.60
2022-08-07T15:57:04.923Z,49.47
2022-08-07T15:58:04.915Z,52.05
2022-08-07T15:59:05.736Z,49.47
2022-08-07T16:00:06.578Z,48.34
2022-08-07T16:01:04.932Z,51.24
2022-08-07T16:02:04.909Z,51.88
2022-08-07T16:03:04.845Z,52.85
2022-08-07T16:04:04.801Z,51.40
2022-08-07T16:05:04.800Z,51.88
2022-08-07T16:06:04.790Z,52.69
2022-08-07T16:07:05.036Z,53.17
2022-08-07T16:08:33.520Z,51.72
2022-08-07T16:09:07.693Z,52.05
2022-08-07T16:10:04.789Z,49.79
2022-08-07T16:11:04.768Z,50.43
2022-08-07T16:12:04.737Z,50.27
2022-08-07T16:13:17.361Z,50.76
2022-08-07T16:14:04.726Z,51.08
2022-08-07T16:15:05.618Z,50.27
2022-08-07T16:16:06.496Z,52.37
2022-08-07T16:17:16.168Z,51.24
2022-08-07T16:18:04.655Z,51.40
2022-08-07T16:19:04.682Z,48.98
2022-08-07T16:20:04.787Z,49.47
2022-08-07T16:21:53.470Z,50.11
2022-08-07T16:22:14.877Z,49.79
2022-08-07T16:23:05.080Z,50.43
2022-08-07T16:24:09.145Z,50.27
2022-08-07T16:25:04.695Z,52.69
2022-08-07T16:26:04.606Z,51.08
2022-08-07T16:27:04.598Z,52.37
2022-08-07T16:28:04.582Z,54.79
2022-08-07T16:29:18.814Z,54.14
2022-08-07T16:30:29.662Z,51.88
2022-08-07T16:31:05.266Z,51.40
2022-08-07T16:32:05.635Z,53.66
2022-08-07T16:34:03.219Z,52.85
2022-08-07T16:34:09.908Z,55.11
2022-08-07T16:35:04.495Z,53.01
2022-08-07T16:36:04.730Z,52.21
2022-08-07T16:38:04.709Z,53.17
2022-08-07T16:38:11.376Z,50.43
2022-08-07T16:39:05.651Z,52.37
2022-08-07T16:40:04.655Z,52.53
2022-08-07T16:41:04.827Z,52.53
2022-08-07T16:42:04.428Z,54.79
2022-08-07T16:43:04.473Z,53.01
2022-08-07T16:44:40.438Z,53.33
2022-08-07T16:45:14.995Z,54.79
2022-08-07T16:46:21.035Z,53.01
2022-08-07T16:47:17.849Z,52.05
2022-08-07T16:48:06.367Z,53.98
2022-08-07T16:50:20.545Z,54.30
2022-08-07T16:50:20.624Z,54.79
2022-08-07T16:51:22.626Z,53.50
2022-08-07T16:52:50.884Z,55.27
2022-08-07T16:53:26.809Z,51.56
2022-08-07T16:54:09.048Z,52.05
2022-08-07T16:55:08.442Z,54.14
2022-08-07T16:56:04.364Z,53.98
2022-08-07T16:57:04.325Z,55.59
2022-08-07T16:58:04.369Z,55.59
2022-08-07T16:59:15.277Z,55.27
2022-08-07T17:00:04.260Z,54.30
2022-08-07T17:01:07.924Z,53.33
2022-08-07T17:02:04.205Z,53.01
2022-08-07T17:03:04.703Z,51.56
2022-08-07T17:04:04.235Z,54.62
2022-08-07T17:05:04.257Z,55.75
2022-08-07T17:06:29.789Z,55.43
2022-08-07T17:07:04.329Z,53.82
2022-08-07T17:08:04.168Z,53.17
2022-08-07T17:09:09.287Z,52.69
2022-08-07T17:10:09.285Z,55.59
2022-08-07T17:11:04.200Z,53.17
2022-08-07T17:12:35.956Z,55.27
2022-08-07T17:13:04.045Z,53.66
2022-08-07T17:14:19.688Z,53.66
2022-08-07T17:15:04.045Z,54.46
2022-08-07T17:16:04.047Z,54.14
2022-08-07T17:17:04.062Z,53.17
2022-08-07T17:18:04.033Z,53.33
2022-08-07T17:19:03.972Z,54.62
2022-08-07T17:20:13.987Z,55.11
2022-08-07T17:21:03.969Z,53.82
2022-08-07T17:22:03.982Z,52.05
2022-08-07T17:23:08.649Z,54.14
2022-08-07T17:24:03.956Z,51.88
2022-08-07T17:25:03.957Z,53.50
2022-08-07T17:26:03.895Z,52.69
2022-08-07T17:27:03.872Z,52.69
2022-08-07T17:28:06.702Z,52.53
2022-08-07T17:29:04.503Z,51.08
2022-08-07T17:30:14.948Z,50.60
2022-08-07T17:31:16.277Z,53.50
2022-08-07T17:32:06.344Z,52.85
2022-08-07T17:33:03.814Z,54.30
2022-08-07T17:34:15.341Z,49.47
2022-08-07T17:35:50.061Z,50.92
2022-08-07T17:36:05.856Z,51.24
2022-08-07T17:37:09.628Z,50.11
2022-08-07T17:38:05.482Z,49.79
2022-08-07T17:39:10.211Z,51.56
2022-08-07T17:40:10.996Z,52.05
2022-08-07T17:42:00.998Z,53.98
2022-08-07T17:42:06.574Z,54.30
2022-08-07T17:43:03.770Z,55.11
2022-08-07T17:44:05.765Z,53.82
2022-08-07T17:45:03.686Z,53.66
2022-08-07T17:46:03.725Z,55.11
2022-08-07T17:47:03.644Z,55.11
2022-08-07T17:48:03.636Z,52.37
2022-08-07T17:49:08.940Z,52.53
2022-08-07T17:50:03.617Z,53.33
2022-08-07T17:51:03.612Z,54.30
2022-08-07T17:52:03.595Z,55.27
2022-08-07T17:53:05.877Z,54.79
2022-08-07T17:54:06.127Z,55.11
2022-08-07T17:55:04.377Z,55.59
2022-08-07T17:56:06.761Z,54.14
2022-08-07T17:57:03.538Z,52.05
2022-08-07T17:58:05.024Z,53.50
2022-08-07T17:59:03.501Z,51.08
2022-08-07T18:00:03.481Z,51.24
2022-08-07T18:01:03.505Z,54.79
2022-08-07T18:02:04.489Z,55.11
2022-08-07T18:03:05.263Z,53.98
2022-08-07T18:04:07.166Z,51.72
2022-08-07T18:05:14.252Z,53.50
2022-08-07T18:06:06.649Z,56.24
2022-08-07T18:07:20.816Z,52.53
2022-08-07T18:08:03.482Z,51.72
2022-08-07T18:09:06.196Z,53.50
2022-08-07T18:10:07.450Z,50.60
2022-08-07T18:11:53.934Z,52.37
2022-08-07T18:12:17.624Z,50.92
2022-08-07T18:13:03.371Z,52.53
2022-08-07T18:14:03.466Z,53.66
2022-08-07T18:15:08.510Z,54.62
2022-08-07T18:16:03.378Z,53.17
2022-08-07T18:17:05.306Z,54.79
2022-08-07T18:18:39.858Z,55.43
2022-08-07T18:21:05.947Z,53.01
2022-08-07T18:21:06.520Z,55.11
2022-08-07T18:21:40.104Z,55.43
2022-08-07T18:22:06.336Z,54.62
2022-08-07T18:23:04.537Z,55.27
2022-08-07T18:24:07.237Z,54.46
2022-08-07T18:25:19.348Z,55.91
2022-08-07T18:26:03.211Z,57.20
2022-08-07T18:27:03.190Z,56.24
2022-08-07T18:28:03.143Z,54.30
2022-08-07T18:29:03.203Z,55.27
2022-08-07T18:30:05.886Z,57.85
2022-08-07T18:31:03.162Z,56.56
2022-08-07T18:32:03.214Z,54.46
2022-08-07T18:33:12.097Z,56.24
2022-08-07T18:34:03.080Z,56.07
2022-08-07T18:35:03.099Z,56.88
2022-08-07T18:36:03.093Z,57.85
2022-08-07T18:37:09.680Z,55.75
2022-08-07T18:38:57.525Z,56.07
2022-08-07T18:40:06.832Z,57.69
2022-08-07T18:40:06.961Z,56.72
2022-08-07T18:41:09.401Z,53.33
2022-08-07T18:42:04.000Z,58.33
2022-08-07T18:43:03.213Z,55.75
2022-08-07T18:44:04.078Z,57.20
2022-08-07T18:45:43.639Z,56.40
2022-08-07T18:46:25.592Z,57.20
2022-08-07T18:47:02.981Z,57.36
2022-08-07T18:48:02.948Z,57.69
2022-08-07T18:50:06.788Z,57.04
2022-08-07T18:50:33.150Z,55.11
2022-08-07T18:51:02.859Z,56.88
2022-08-07T18:52:25.647Z,56.07
2022-08-07T18:53:06.089Z,56.72
2022-08-07T18:54:02.827Z,57.52
2022-08-07T18:55:42.020Z,54.62
2022-08-07T18:56:02.834Z,54.46
2022-08-07T18:57:40.095Z,56.56
2022-08-07T18:58:02.799Z,54.95
2022-08-07T19:03:15.761Z,54.95
2022-08-07T19:04:15.948Z,55.75
2022-08-07T19:05:15.786Z,54.62
2022-08-07T19:06:16.290Z,56.72
2022-08-07T19:07:12.515Z,56.07
2022-08-07T19:08:12.464Z,54.95
2022-08-07T19:09:57.641Z,53.98
2022-08-07T19:10:21.292Z,51.08
2022-08-07T19:11:34.677Z,54.79
2022-08-07T19:12:12.430Z,56.24
2022-08-07T19:13:21.983Z,53.66
2022-08-07T19:14:19.833Z,55.75
2022-08-07T19:16:03.792Z,56.24
2022-08-07T19:16:43.724Z,54.79
2022-08-07T19:17:52.462Z,55.27
2022-08-07T19:18:12.358Z,53.50
2022-08-07T19:19:13.150Z,54.14
2022-08-07T19:20:29.170Z,55.27
2022-08-07T19:21:44.336Z,54.95
2022-08-07T19:22:12.311Z,57.52
2022-08-07T19:23:18.189Z,54.62
2022-08-07T19:24:12.290Z,52.05
2022-08-07T19:25:12.283Z,54.79
2022-08-07T19:26:23.123Z,53.17
2022-08-07T19:28:29.493Z,53.50
2022-08-07T19:28:57.381Z,52.69
2022-08-07T19:31:01.927Z,52.37
2022-08-07T19:31:04.684Z,54.79
2022-08-07T19:31:37.220Z,55.27
2022-08-07T19:32:17.439Z,54.62
2022-08-07T19:33:15.725Z,52.69
2022-08-07T19:34:12.179Z,52.21
2022-08-07T19:35:12.146Z,54.62
2022-08-07T19:36:12.150Z,55.91
2022-08-07T19:37:16.946Z,53.33
2022-08-07T19:38:15.682Z,56.24
2022-08-07T19:39:12.188Z,55.91
2022-08-07T19:40:12.150Z,51.72
2022-08-07T19:41:12.175Z,53.66
2022-08-07T19:42:40.206Z,55.27
2022-08-07T19:43:21.171Z,54.95
2022-08-07T19:44:21.779Z,55.27
2022-08-07T19:45:12.043Z,54.95
2022-08-07T19:46:12.059Z,55.59
2022-08-07T19:47:12.023Z,55.75
2022-08-07T19:48:18.890Z,56.40
2022-08-07T19:49:12.002Z,52.21
2022-08-07T19:50:43.643Z,51.40
2022-08-07T19:51:19.437Z,54.79
2022-08-07T19:52:18.366Z,52.85
2022-08-07T19:54:33.108Z,53.50
2022-08-07T19:54:33.178Z,54.95
2022-08-07T19:55:11.953Z,54.79
2022-08-07T19:56:58.599Z,52.85
2022-08-07T19:58:04.472Z,53.66
2022-08-07T19:58:13.669Z,53.66
2022-08-07T19:59:13.067Z,51.72
2022-08-07T20:00:27.984Z,54.14
2022-08-07T20:01:13.016Z,54.14
2022-08-07T20:02:25.908Z,53.66
2022-08-07T20:03:33.811Z,53.66
2022-08-07T20:04:13.049Z,53.98
2022-08-07T20:05:12.976Z,53.17
2022-08-07T20:06:15.201Z,54.62
2022-08-07T20:07:12.963Z,53.01
2022-08-07T20:08:12.964Z,53.17
2022-08-07T20:10:34.261Z,54.14
2022-08-07T20:10:35.995Z,50.92
2022-08-07T20:11:12.943Z,54.46
2022-08-07T20:12:31.293Z,54.30
2022-08-07T20:13:22.386Z,53.01
2022-08-07T20:14:13.755Z,52.85
2022-08-07T20:18:48.998Z,48.66
2022-08-07T20:19:58.214Z,49.31
2022-08-07T20:20:47.745Z,53.50
2022-08-07T20:21:48.438Z,50.60
2022-08-07T20:22:47.697Z,50.11
2022-08-07T20:23:51.976Z,52.21
2022-08-07T20:24:48.682Z,49.95
2022-08-07T20:25:50.892Z,48.66
2022-08-07T20:26:50.200Z,51.24
2022-08-07T20:27:58.268Z,51.24
2022-08-07T20:28:47.659Z,50.60
2022-08-07T20:29:56.951Z,49.31
2022-08-07T20:30:47.661Z,49.95
2022-08-07T20:31:47.584Z,50.27
2022-08-07T20:32:47.571Z,49.63
2022-08-07T20:33:47.578Z,49.15
2022-08-07T20:34:51.165Z,51.08
2022-08-07T20:35:52.012Z,50.92
2022-08-07T20:36:51.686Z,51.56
2022-08-07T20:37:59.078Z,47.21
2022-08-07T20:38:59.616Z,49.63
2022-08-07T20:40:02.042Z,49.15
2022-08-07T20:40:51.596Z,48.18
2022-08-07T20:41:47.468Z,50.27
2022-08-07T20:42:47.531Z,49.63
2022-08-07T20:43:48.090Z,49.31
2022-08-07T20:44:49.390Z,47.53
2022-08-07T20:46:28.154Z,52.05
2022-08-07T20:46:47.621Z,51.56
2022-08-07T20:47:55.342Z,49.63
2022-08-07T20:49:54.246Z,49.47
2022-08-07T20:49:58.445Z,52.69
2022-08-07T20:50:47.654Z,47.53
2022-08-07T20:51:50.284Z,50.27
2022-08-07T20:52:51.100Z,49.63
2022-08-07T20:54:03.570Z,49.63
2022-08-07T20:54:53.801Z,48.82
2022-08-07T20:55:47.739Z,49.31
2022-08-07T20:56:48.317Z,47.37
2022-08-07T20:57:47.469Z,48.82
2022-08-07T20:58:47.318Z,50.43
2022-08-07T21:00:08.290Z,48.18
2022-08-07T21:00:47.277Z,51.56
2022-08-07T21:01:55.154Z,48.66
2022-08-07T21:02:54.071Z,49.63
2022-08-07T21:04:13.175Z,49.79
2022-08-07T21:04:47.258Z,48.66
2022-08-07T21:05:54.349Z,46.41
2022-08-07T21:06:53.402Z,49.31
2022-08-07T21:07:49.747Z,47.05
2022-08-07T21:08:47.222Z,50.60
2022-08-07T21:09:51.672Z,50.27
2022-08-07T21:10:47.222Z,53.33
2022-08-07T21:11:51.050Z,50.60
2022-08-07T21:12:47.319Z,47.05
2022-08-07T21:14:16.269Z,46.41
2022-08-07T21:14:48.466Z,44.63
2022-08-07T21:15:58.452Z,45.60
2022-08-07T21:17:06.481Z,49.47
2022-08-07T21:18:06.203Z,48.98
2022-08-07T21:18:50.588Z,46.57
2022-08-07T21:20:01.088Z,50.11
2022-08-07T21:20:48.255Z,46.57
2022-08-07T21:21:57.047Z,48.18
2022-08-07T21:22:51.306Z,50.43
2022-08-07T21:23:50.645Z,46.73
2022-08-07T21:24:48.957Z,47.53
2022-08-07T21:25:52.217Z,48.66
2022-08-07T21:26:49.195Z,44.96
2022-08-07T21:27:48.200Z,47.21
2022-08-07T21:28:50.883Z,49.63
2022-08-07T21:29:52.796Z,49.15
2022-08-07T21:30:48.201Z,51.08
2022-08-07T21:32:42.390Z,50.27
2022-08-07T21:32:52.094Z,49.15
2022-08-07T21:33:48.165Z,46.89
2022-08-07T21:34:48.853Z,48.34
2022-08-07T21:36:04.928Z,50.43
2022-08-07T21:36:49.955Z,49.31
2022-08-07T21:37:57.911Z,48.66
2022-08-07T21:38:49.795Z,47.86
2022-08-07T21:39:51.859Z,47.53
2022-08-07T21:40:49.469Z,50.76
2022-08-07T21:41:52.139Z,50.76
2022-08-07T21:42:48.679Z,49.31
2022-08-07T21:43:56.547Z,48.66
2022-08-07T21:44:50.995Z,47.37
2022-08-07T21:46:09.795Z,47.53
2022-08-07T21:46:48.001Z,48.66
2022-08-07T21:47:50.471Z,48.02
2022-08-07T21:48:48.385Z,47.05
2022-08-07T21:50:01.070Z,45.76
2022-08-07T21:50:47.941Z,46.73
2022-08-07T21:51:51.155Z,48.50
2022-08-07T21:52:47.933Z,46.73
2022-08-07T21:53:52.978Z,44.79
2022-08-07T21:54:48.443Z,48.02
2022-08-07T21:55:47.967Z,47.37
2022-08-07T21:56:49.317Z,43.99
2022-08-07T21:57:52.400Z,46.41
2022-08-07T21:58:47.826Z,48.18
2022-08-07T22:00:05.099Z,47.05
2022-08-07T22:00:48.209Z,49.15
2022-08-07T22:02:11.023Z,45.76
2022-08-07T22:02:47.867Z,47.21
2022-08-07T22:03:47.747Z,48.34